Time;durP1;ratioP1;P1;durP2;ratioP2;P2;SDS_P1;SDS_P2;PMS_P1;PMS_P2;Temp;Humidity;BMP_temperature;BMP_pressure;BME280_temperature;BME280_humidity;BME280_pressure;Samples;Min_cycle;Max_cycle;Signal;HPM_P1;HPM_P2
2021/10/23 00:01:24;;;;;;;5.47;1.35;;;;;;;;;;4991435;28;20026;-73
2021/10/23 00:03:50;;;;;;;9.77;1.02;;;;;;;;;;5000096;28;20463;-73
2021/10/23 00:06:16;;;;;;;4.55;0.60;;;;;;;;;;4998300;28;20026;-73
2021/10/23 00:08:42;;;;;;;8.38;1.48;;;;;;;;;;4974313;28;20061;-73
2021/10/23 00:11:08;;;;;;;2.88;0.70;;;;;;;;;;4975315;28;20122;-72
2021/10/23 00:13:34;;;;;;;5.03;0.73;;;;;;;;;;4991745;28;20493;-72
2021/10/23 00:16:00;;;;;;;8.23;0.93;;;;;;;;;;4992356;28;20536;-73
2021/10/23 00:18:26;;;;;;;7.03;1.20;;;;;;;;;;4992022;28;20034;-73
2021/10/23 00:20:52;;;;;;;7.30;1.67;;;;;;;;;;4992744;28;20038;-73
2021/10/23 00:23:18;;;;;;;6.57;0.85;;;;;;;;;;4992876;28;20037;-73
2021/10/23 00:25:44;;;;;;;8.48;1.70;;;;;;;;;;4974214;28;20594;-73
2021/10/23 00:28:10;;;;;;;7.75;2.03;;;;;;;;;;4990972;28;20058;-73
2021/10/23 00:30:36;;;;;;;6.47;0.90;;;;;;;;;;4982786;28;20056;-73
2021/10/23 00:33:02;;;;;;;7.45;1.63;;;;;;;;;;4994639;28;20030;-72
2021/10/23 00:35:31;;;;;;;10.18;1.63;;;;;;;;;;4998286;28;20049;-73
2021/10/23 00:37:57;;;;;;;4.50;0.70;;;;;;;;;;4991136;28;20042;-73
2021/10/23 00:40:23;;;;;;;6.03;0.73;;;;;;;;;;4991348;28;20031;-73
2021/10/23 00:42:51;;;;;;;4.45;1.13;;;;;;;;;;4990896;28;20386;-73
2021/10/23 00:45:17;;;;;;;5.30;1.08;;;;;;;;;;4996031;28;20018;-72
2021/10/23 00:47:43;;;;;;;5.95;1.17;;;;;;;;;;4991111;28;20028;-72
2021/10/23 00:50:09;;;;;;;8.40;0.90;;;;;;;;;;4990929;28;20130;-73
2021/10/23 00:52:35;;;;;;;7.53;0.70;;;;;;;;;;4990986;28;20030;-73
2021/10/23 00:55:01;;;;;;;5.32;0.93;;;;;;;;;;4993731;28;20030;-73
2021/10/23 00:57:27;;;;;;;4.80;0.73;;;;;;;;;;4996659;28;20106;-73
2021/10/23 00:59:53;;;;;;;6.25;0.70;;;;;;;;;;4990635;28;20113;-73
2021/10/23 01:02:19;;;;;;;5.47;0.85;;;;;;;;;;4991001;28;20030;-73
2021/10/23 01:04:45;;;;;;;4.88;0.47;;;;;;;;;;4997849;28;20026;-72
2021/10/23 01:07:11;;;;;;;9.93;0.77;;;;;;;;;;4990999;28;20018;-73
2021/10/23 01:09:39;;;;;;;4.60;0.45;;;;;;;;;;4983421;28;20102;-73
2021/10/23 01:12:06;;;;;;;3.25;0.43;;;;;;;;;;4990680;28;20726;-72
2021/10/23 01:14:32;;;;;;;3.63;0.52;;;;;;;;;;4986726;28;20022;-73
2021/10/23 01:16:58;;;;;;;3.53;0.70;;;;;;;;;;4990577;28;20030;-73
2021/10/23 01:19:24;;;;;;;7.93;0.95;;;;;;;;;;4989474;28;20471;-73
2021/10/23 01:21:51;;;;;;;4.18;0.82;;;;;;;;;;4993836;28;20023;-72
2021/10/23 01:24:17;;;;;;;4.32;0.57;;;;;;;;;;4990653;28;20018;-73
2021/10/23 01:26:43;;;;;;;2.80;0.43;;;;;;;;;;4990735;28;20022;-73
2021/10/23 01:29:10;;;;;;;3.80;0.77;;;;;;;;;;4985112;28;20439;-72
2021/10/23 01:31:36;;;;;;;8.50;0.60;;;;;;;;;;4990650;28;20062;-73
2021/10/23 01:34:13;;;;;;;5.70;0.70;;;;;;;;;;4990481;28;20030;-72
2021/10/23 01:36:46;;;;;;;4.85;0.60;;;;;;;;;;4993561;28;20041;-73
2021/10/23 01:39:12;;;;;;;5.15;0.68;;;;;;;;;;4974301;28;20030;-73
2021/10/23 01:41:39;;;;;;;3.17;0.98;;;;;;;;;;4989699;28;20519;-72
2021/10/23 01:44:06;;;;;;;5.75;0.40;;;;;;;;;;4991049;28;20427;-72
2021/10/23 01:46:32;;;;;;;4.13;0.55;;;;;;;;;;4989603;28;20053;-73
2021/10/23 01:48:59;;;;;;;4.88;0.95;;;;;;;;;;4990184;28;20061;-73
2021/10/23 01:51:26;;;;;;;7.60;0.52;;;;;;;;;;4978129;28;20033;-73
2021/10/23 01:53:52;;;;;;;11.30;1.30;;;;;;;;;;4972965;28;20376;-73
2021/10/23 01:56:18;;;;;;;5.22;0.65;;;;;;;;;;4990586;28;20026;-73
2021/10/23 01:58:44;;;;;;;1.85;0.40;;;;;;;;;;4990243;28;20037;-73
2021/10/23 02:01:10;;;;;;;7.85;0.55;;;;;;;;;;4990547;28;20022;-72
2021/10/23 02:03:36;;;;;;;1.48;0.50;;;;;;;;;;4983273;28;20059;-73
2021/10/23 02:06:02;;;;;;;5.18;0.63;;;;;;;;;;4979617;28;20034;-72
2021/10/23 02:08:28;;;;;;;2.83;0.77;;;;;;;;;;4986232;28;20025;-72
2021/10/23 02:10:54;;;;;;;5.97;0.50;;;;;;;;;;4972666;28;20030;-73
2021/10/23 02:13:20;;;;;;;6.03;0.50;;;;;;;;;;4991034;28;20490;-73
2021/10/23 02:15:46;;;;;;;4.65;0.77;;;;;;;;;;4990084;28;20038;-73
2021/10/23 02:18:12;;;;;;;4.00;0.45;;;;;;;;;;4990039;28;20030;-73
2021/10/23 02:20:38;;;;;;;3.08;0.40;;;;;;;;;;4989039;28;20045;-73
2021/10/23 02:23:04;;;;;;;4.72;0.50;;;;;;;;;;4972635;28;20113;-73
2021/10/23 02:25:30;;;;;;;7.93;0.65;;;;;;;;;;4990218;28;20025;-73
2021/10/23 02:27:56;;;;;;;2.50;0.40;;;;;;;;;;4990040;28;20030;-73
2021/10/23 02:30:22;;;;;;;4.95;0.40;;;;;;;;;;4990331;28;20068;-73
2021/10/23 02:32:48;;;;;;;6.40;0.30;;;;;;;;;;4989484;28;20042;-73
2021/10/23 02:35:14;;;;;;;6.00;0.73;;;;;;;;;;4990443;28;20639;-73
2021/10/23 02:37:40;;;;;;;8.55;0.65;;;;;;;;;;4989479;28;20084;-73
2021/10/23 02:40:06;;;;;;;3.47;0.60;;;;;;;;;;4990045;28;20026;-73
2021/10/23 02:42:32;;;;;;;1.88;0.30;;;;;;;;;;4971785;28;20745;-73
2021/10/23 02:44:58;;;;;;;5.53;0.40;;;;;;;;;;4970724;28;20707;-73
2021/10/23 02:47:24;;;;;;;6.63;0.70;;;;;;;;;;4972971;28;20030;-73
2021/10/23 02:49:50;;;;;;;6.28;1.98;;;;;;;;;;4989618;28;20046;-73
2021/10/23 02:52:16;;;;;;;5.85;0.52;;;;;;;;;;5001904;28;20471;-73
2021/10/23 02:54:42;;;;;;;4.57;0.60;;;;;;;;;;4994074;28;20038;-72
2021/10/23 02:57:08;;;;;;;6.28;0.60;;;;;;;;;;4978271;28;20041;-73
2021/10/23 02:59:34;;;;;;;4.03;0.70;;;;;;;;;;4995070;28;20022;-73
2021/10/23 03:02:00;;;;;;;8.13;1.38;;;;;;;;;;4998769;28;20027;-73
2021/10/23 03:04:25;;;;;;;5.72;0.98;;;;;;;;;;4999864;28;20243;-73
2021/10/23 03:06:51;;;;;;;7.20;1.98;;;;;;;;;;4989437;28;20353;-73
2021/10/23 03:09:17;;;;;;;5.85;0.75;;;;;;;;;;4990753;28;20026;-73
2021/10/23 03:11:44;;;;;;;4.07;0.40;;;;;;;;;;4989482;28;20065;-73
2021/10/23 03:14:10;;;;;;;8.68;1.20;;;;;;;;;;4998592;28;20049;-72
2021/10/23 03:16:36;;;;;;;5.95;0.77;;;;;;;;;;4993108;28;20037;-73
2021/10/23 03:19:02;;;;;;;7.03;0.68;;;;;;;;;;4993519;28;20050;-73
2021/10/23 03:21:28;;;;;;;1.58;0.52;;;;;;;;;;4993232;28;20444;-73
2021/10/23 03:23:54;;;;;;;7.53;0.90;;;;;;;;;;4992499;28;20113;-73
2021/10/23 03:26:20;;;;;;;4.57;0.80;;;;;;;;;;4992659;28;20069;-73
2021/10/23 03:28:46;;;;;;;6.72;0.55;;;;;;;;;;4992770;28;20100;-73
2021/10/23 03:31:12;;;;;;;4.55;0.60;;;;;;;;;;4975490;28;20041;-73
2021/10/23 03:33:38;;;;;;;2.22;0.43;;;;;;;;;;4962674;28;20031;-73
2021/10/23 03:36:05;;;;;;;6.00;0.70;;;;;;;;;;4993206;28;20490;-73
2021/10/23 03:38:31;;;;;;;4.20;0.65;;;;;;;;;;4992764;28;20029;-73
2021/10/23 03:40:57;;;;;;;3.92;0.52;;;;;;;;;;4991589;28;20035;-73
2021/10/23 03:43:23;;;;;;;3.63;0.50;;;;;;;;;;4992563;28;20022;-73
2021/10/23 03:45:49;;;;;;;3.88;0.65;;;;;;;;;;4991991;28;20029;-73
2021/10/23 03:48:15;;;;;;;3.20;0.40;;;;;;;;;;4991740;28;20030;-72
2021/10/23 03:50:41;;;;;;;3.13;0.47;;;;;;;;;;4992490;28;20040;-73
2021/10/23 03:53:07;;;;;;;7.57;0.65;;;;;;;;;;4993071;28;20045;-73
2021/10/23 03:55:33;;;;;;;3.17;0.90;;;;;;;;;;4974983;28;20466;-73
2021/10/23 03:57:59;;;;;;;2.17;0.43;;;;;;;;;;4976152;28;20027;-73
2021/10/23 04:00:25;;;;;;;9.52;0.68;;;;;;;;;;4986646;28;20472;-73
2021/10/23 04:02:51;;;;;;;4.00;0.70;;;;;;;;;;4988540;28;20023;-72
2021/10/23 04:05:18;;;;;;;2.20;0.47;;;;;;;;;;4977511;28;20439;-73
2021/10/23 04:07:44;;;;;;;6.30;1.10;;;;;;;;;;4992082;28;20026;-73
2021/10/23 04:10:10;;;;;;;5.43;1.70;;;;;;;;;;4991681;28;20037;-72
2021/10/23 04:12:36;;;;;;;5.65;0.80;;;;;;;;;;4988938;28;20088;-73
2021/10/23 04:15:02;;;;;;;5.18;0.73;;;;;;;;;;4979638;28;20026;-72
2021/10/23 04:17:28;;;;;;;3.17;0.52;;;;;;;;;;5000057;28;20033;-73
2021/10/23 04:19:54;;;;;;;6.50;1.10;;;;;;;;;;5007447;28;20037;-72
2021/10/23 04:22:21;;;;;;;5.25;1.25;;;;;;;;;;4983576;28;20023;-73
2021/10/23 04:24:47;;;;;;;5.25;0.70;;;;;;;;;;4992286;28;20030;-73
2021/10/23 04:27:13;;;;;;;6.65;0.85;;;;;;;;;;4997904;28;20026;-73
2021/10/23 04:29:39;;;;;;;4.40;1.60;;;;;;;;;;4981545;28;20471;-73
2021/10/23 04:32:05;;;;;;;6.35;0.85;;;;;;;;;;4992131;28;20023;-73
2021/10/23 04:34:31;;;;;;;10.07;1.35;;;;;;;;;;4996501;28;20010;-73
2021/10/23 04:36:58;;;;;;;5.25;1.23;;;;;;;;;;4991787;28;20061;-73
2021/10/23 04:39:24;;;;;;;8.15;0.65;;;;;;;;;;4979305;28;20054;-73
2021/10/23 04:41:50;;;;;;;4.53;0.95;;;;;;;;;;4991340;28;20121;-73
2021/10/23 04:44:16;;;;;;;8.18;1.23;;;;;;;;;;4990533;28;20098;-73
2021/10/23 04:46:42;;;;;;;6.25;1.33;;;;;;;;;;4974226;28;20127;-73
2021/10/23 04:49:08;;;;;;;7.45;1.05;;;;;;;;;;5005223;23;20050;-69
2021/10/23 04:51:33;;;;;;;3.83;1.17;;;;;;;;;;4978442;28;20034;-69
2021/10/23 04:53:59;;;;;;;3.75;1.40;;;;;;;;;;4999813;28;20035;-69
2021/10/23 04:56:25;;;;;;;6.95;0.80;;;;;;;;;;4990673;28;20046;-70
2021/10/23 04:58:51;;;;;;;6.75;1.50;;;;;;;;;;4991001;28;20033;-69
2021/10/23 05:01:17;;;;;;;5.43;1.00;;;;;;;;;;4972301;28;20464;-69
2021/10/23 05:03:43;;;;;;;4.28;0.90;;;;;;;;;;4971494;28;20038;-69
2021/10/23 05:06:09;;;;;;;4.93;2.05;;;;;;;;;;4970678;28;20030;-70
2021/10/23 05:08:35;;;;;;;4.25;0.90;;;;;;;;;;4971737;28;20022;-70
2021/10/23 05:11:01;;;;;;;5.00;1.20;;;;;;;;;;4971607;28;20030;-69
2021/10/23 05:13:27;;;;;;;8.63;1.38;;;;;;;;;;4958487;28;20034;-69
2021/10/23 05:15:53;;;;;;;4.25;1.33;;;;;;;;;;4947882;28;20539;-69
2021/10/23 05:18:19;;;;;;;7.30;1.10;;;;;;;;;;4972390;28;20031;-70
2021/10/23 05:20:45;;;;;;;6.75;1.17;;;;;;;;;;4971305;28;20035;-69
2021/10/23 05:23:11;;;;;;;4.60;1.00;;;;;;;;;;4971230;28;20031;-69
2021/10/23 05:25:37;;;;;;;7.85;2.03;;;;;;;;;;4971352;28;20023;-70
2021/10/23 05:28:03;;;;;;;1.73;0.88;;;;;;;;;;4976434;28;20038;-69
2021/10/23 05:30:29;;;;;;;5.60;1.35;;;;;;;;;;4952986;28;20054;-69
2021/10/23 05:32:55;;;;;;;4.85;1.73;;;;;;;;;;4970967;28;20484;-69
2021/10/23 05:35:21;;;;;;;4.97;1.00;;;;;;;;;;4971608;28;20030;-69
2021/10/23 05:37:49;;;;;;;10.00;1.23;;;;;;;;;;4974611;28;20031;-69
2021/10/23 05:40:15;;;;;;;6.65;2.05;;;;;;;;;;4979829;28;20014;-69
2021/10/23 05:42:41;;;;;;;4.60;1.42;;;;;;;;;;4969891;28;20435;-69
2021/10/23 05:45:07;;;;;;;9.30;1.42;;;;;;;;;;4971301;28;20029;-69
2021/10/23 05:47:33;;;;;;;4.45;1.38;;;;;;;;;;4983680;28;20097;-69
2021/10/23 05:49:59;;;;;;;9.25;1.50;;;;;;;;;;4973905;28;20122;-70
2021/10/23 05:52:26;;;;;;;8.10;2.17;;;;;;;;;;4977478;28;20121;-70
2021/10/23 05:54:52;;;;;;;11.45;1.90;;;;;;;;;;4958709;28;20482;-69
2021/10/23 05:57:17;;;;;;;3.13;0.90;;;;;;;;;;4978203;28;20162;-69
2021/10/23 05:59:46;;;;;;;6.07;1.38;;;;;;;;;;4956633;28;20145;-69
2021/10/23 06:02:25;;;;;;;2.03;1.05;;;;;;;;;;4977556;28;20019;-70
2021/10/23 06:04:56;;;;;;;7.30;2.00;;;;;;;;;;4971239;28;20395;-69
2021/10/23 06:07:24;;;;;;;9.52;1.30;;;;;;;;;;4970996;28;20443;-69
2021/10/23 06:09:50;;;;;;;8.88;1.40;;;;;;;;;;4970025;28;20042;-70
2021/10/23 06:12:16;;;;;;;4.25;1.08;;;;;;;;;;4970625;28;20023;-69
2021/10/23 06:14:42;;;;;;;4.93;1.60;;;;;;;;;;4955490;28;20539;-69
2021/10/23 06:17:08;;;;;;;6.93;1.40;;;;;;;;;;4966746;28;20027;-69
2021/10/23 06:19:35;;;;;;;9.18;1.27;;;;;;;;;;4971117;28;20388;-69
2021/10/23 06:22:01;;;;;;;6.68;1.20;;;;;;;;;;4966129;28;20027;-69
2021/10/23 06:24:27;;;;;;;6.40;1.88;;;;;;;;;;4958251;28;20377;-69
2021/10/23 06:26:53;;;;;;;5.93;1.70;;;;;;;;;;4972782;28;20034;-69
2021/10/23 06:29:19;;;;;;;6.63;1.38;;;;;;;;;;4979412;28;20023;-70
2021/10/23 06:31:45;;;;;;;8.65;1.45;;;;;;;;;;4972329;28;20027;-69
2021/10/23 06:34:11;;;;;;;6.68;1.73;;;;;;;;;;4981291;28;20053;-69
2021/10/23 06:36:37;;;;;;;8.05;2.03;;;;;;;;;;4978311;28;20101;-70
2021/10/23 06:39:03;;;;;;;5.40;1.33;;;;;;;;;;4974533;28;20035;-69
2021/10/23 06:41:30;;;;;;;6.70;1.67;;;;;;;;;;4980039;28;20035;-69
2021/10/23 06:43:56;;;;;;;5.93;2.00;;;;;;;;;;4974772;28;20554;-69
2021/10/23 06:46:24;;;;;;;17.70;3.40;;;;;;;;;;4978482;28;20046;-69
2021/10/23 06:48:50;;;;;;;9.73;1.60;;;;;;;;;;4960273;28;20039;-69
2021/10/23 06:51:16;;;;;;;8.70;2.72;;;;;;;;;;4961920;28;20056;-69
2021/10/23 06:53:42;;;;;;;24.88;3.63;;;;;;;;;;4977904;28;20027;-69
2021/10/23 06:56:08;;;;;;;6.20;1.30;;;;;;;;;;4976730;28;20026;-69
2021/10/23 06:58:34;;;;;;;7.88;1.95;;;;;;;;;;4959737;28;20122;-69
2021/10/23 07:01:00;;;;;;;11.52;1.40;;;;;;;;;;4972219;28;20054;-69
2021/10/23 07:03:26;;;;;;;4.63;1.30;;;;;;;;;;4973484;28;20019;-69
2021/10/23 07:05:53;;;;;;;8.93;1.70;;;;;;;;;;4972248;28;20043;-69
2021/10/23 07:08:19;;;;;;;13.85;3.38;;;;;;;;;;4972688;28;20029;-70
2021/10/23 07:10:45;;;;;;;7.38;2.25;;;;;;;;;;4972572;28;20041;-69
2021/10/23 07:13:11;;;;;;;7.85;2.20;;;;;;;;;;4972273;28;20022;-69
2021/10/23 07:15:39;;;;;;;9.57;2.50;;;;;;;;;;4974402;28;20027;-70
2021/10/23 07:18:05;;;;;;;8.95;2.90;;;;;;;;;;4973783;28;20030;-69
2021/10/23 07:20:32;;;;;;;12.13;2.90;;;;;;;;;;4970823;28;20536;-70
2021/10/23 07:22:58;;;;;;;7.93;2.67;;;;;;;;;;4971001;28;20031;-69
2021/10/23 07:25:24;;;;;;;7.55;2.35;;;;;;;;;;4981013;28;20034;-69
2021/10/23 07:27:50;;;;;;;11.68;2.88;;;;;;;;;;4970869;28;20032;-69
2021/10/23 07:30:16;;;;;;;10.82;2.38;;;;;;;;;;4974044;28;20432;-69
2021/10/23 07:32:42;;;;;;;15.85;3.63;;;;;;;;;;4971616;28;20377;-69
2021/10/23 07:35:08;;;;;;;7.82;2.75;;;;;;;;;;4971537;28;20039;-69
2021/10/23 07:37:35;;;;;;;10.68;3.03;;;;;;;;;;4973187;28;20042;-70
2021/10/23 07:40:01;;;;;;;7.03;3.00;;;;;;;;;;4958186;28;20082;-71
2021/10/23 07:42:27;;;;;;;11.65;3.78;;;;;;;;;;4958316;28;20031;-71
2021/10/23 07:44:53;;;;;;;12.38;3.78;;;;;;;;;;4960476;28;20135;-69
2021/10/23 07:47:19;;;;;;;9.90;3.25;;;;;;;;;;4949800;28;20041;-70
2021/10/23 07:49:46;;;;;;;16.35;3.88;;;;;;;;;;4961538;28;20034;-70
2021/10/23 07:52:12;;;;;;;11.20;3.63;;;;;;;;;;4964803;28;20019;-69
2021/10/23 07:54:38;;;;;;;14.88;4.57;;;;;;;;;;4945968;28;20189;-69
2021/10/23 07:57:05;;;;;;;16.67;4.82;;;;;;;;;;4960856;28;20030;-70
2021/10/23 07:59:31;;;;;;;11.93;4.00;;;;;;;;;;4943780;28;20073;-69
2021/10/23 08:01:58;;;;;;;11.73;4.97;;;;;;;;;;4961936;28;20142;-69
2021/10/23 08:04:24;;;;;;;13.93;6.03;;;;;;;;;;4963890;28;20019;-70
2021/10/23 08:06:50;;;;;;;19.90;5.70;;;;;;;;;;4968271;28;20035;-70
2021/10/23 08:09:16;;;;;;;13.10;4.97;;;;;;;;;;4965020;28;20034;-69
2021/10/23 08:11:43;;;;;;;15.48;5.45;;;;;;;;;;4967980;28;20022;-70
2021/10/23 08:14:09;;;;;;;17.95;5.22;;;;;;;;;;4955984;28;20470;-69
2021/10/23 08:16:35;;;;;;;16.80;5.45;;;;;;;;;;4961624;28;20026;-69
2021/10/23 08:19:02;;;;;;;20.67;6.43;;;;;;;;;;4971081;28;20031;-69
2021/10/23 08:21:28;;;;;;;17.70;6.10;;;;;;;;;;4970908;28;20026;-69
2021/10/23 08:23:54;;;;;;;14.25;5.85;;;;;;;;;;4970833;28;20646;-70
2021/10/23 08:26:20;;;;;;;17.30;6.32;;;;;;;;;;4971060;28;20024;-70
2021/10/23 08:28:46;;;;;;;15.70;7.22;;;;;;;;;;4968079;28;20054;-70
2021/10/23 08:31:12;;;;;;;16.67;7.55;;;;;;;;;;4966861;28;20400;-70
2021/10/23 08:33:38;;;;;;;18.65;6.78;;;;;;;;;;4985666;28;20031;-69
2021/10/23 08:36:04;;;;;;;15.55;7.43;;;;;;;;;;4968320;28;20026;-70
2021/10/23 08:38:30;;;;;;;28.13;8.80;;;;;;;;;;4984951;28;20030;-69
2021/10/23 08:40:57;;;;;;;23.70;8.13;;;;;;;;;;4984597;28;20031;-69
2021/10/23 08:43:24;;;;;;;17.38;8.57;;;;;;;;;;4985324;28;20027;-70
2021/10/23 08:45:52;;;;;;;16.55;7.22;;;;;;;;;;4985520;28;20091;-71
2021/10/23 08:48:19;;;;;;;18.83;8.32;;;;;;;;;;4987418;28;20098;-72
2021/10/23 08:50:45;;;;;;;21.80;9.18;;;;;;;;;;4984002;28;20050;-70
2021/10/23 08:53:13;;;;;;;25.58;9.23;;;;;;;;;;4983401;28;20034;-71
2021/10/23 08:55:39;;;;;;;22.83;9.48;;;;;;;;;;4987180;28;20034;-70
2021/10/23 08:58:05;;;;;;;27.58;10.90;;;;;;;;;;4965000;28;20011;-69
2021/10/23 09:00:30;;;;;;;26.50;9.43;;;;;;;;;;4992099;28;20060;-70
2021/10/23 09:02:56;;;;;;;29.73;10.68;;;;;;;;;;4981289;28;20024;-71
2021/10/23 09:05:23;;;;;;;26.08;10.82;;;;;;;;;;4998945;28;20026;-71
2021/10/23 09:07:50;;;;;;;29.40;11.80;;;;;;;;;;4963994;28;20163;-70
2021/10/23 09:10:27;;;;;;;31.67;13.43;;;;;;;;;;4986466;28;20034;-72
2021/10/23 09:13:00;;;;;;;31.42;12.23;;;;;;;;;;4984174;28;20096;-69
2021/10/23 09:15:30;;;;;;;26.17;11.68;;;;;;;;;;4970592;28;20064;-69
2021/10/23 09:17:56;;;;;;;27.48;12.75;;;;;;;;;;4971830;28;20519;-68
2021/10/23 09:20:22;;;;;;;26.55;12.60;;;;;;;;;;4952416;28;20727;-69
2021/10/23 09:22:52;;;;;;;26.30;11.82;;;;;;;;;;4966180;28;20110;-69
2021/10/23 09:25:21;;;;;;;28.20;12.13;;;;;;;;;;4941359;28;20409;-70
2021/10/23 09:27:50;;;;;;;27.25;12.55;;;;;;;;;;4973893;28;20031;-70
2021/10/23 09:30:16;;;;;;;34.83;14.05;;;;;;;;;;4968465;28;20075;-68
2021/10/23 09:32:48;;;;;;;32.90;12.88;;;;;;;;;;4953230;28;20046;-69
2021/10/23 09:35:15;;;;;;;29.33;10.82;;;;;;;;;;4962776;28;20037;-69
2021/10/23 09:37:43;;;;;;;28.48;11.32;;;;;;;;;;4966941;28;20054;-69
2021/10/23 09:40:10;;;;;;;24.60;11.27;;;;;;;;;;4965840;28;20096;-72
2021/10/23 09:42:35;;;;;;;28.38;10.75;;;;;;;;;;4978603;28;20162;-69
2021/10/23 09:45:04;;;;;;;21.52;10.52;;;;;;;;;;4970795;28;20106;-69
2021/10/23 09:47:31;;;;;;;22.45;10.68;;;;;;;;;;4965780;28;20476;-69
2021/10/23 09:50:04;;;;;;;23.67;11.63;;;;;;;;;;4968495;28;20050;-69
2021/10/23 09:52:32;;;;;;;22.42;10.35;;;;;;;;;;4968319;28;20058;-69
2021/10/23 09:55:08;;;;;;;25.67;11.23;;;;;;;;;;4954593;28;20036;-70
2021/10/23 09:57:34;;;;;;;21.98;10.52;;;;;;;;;;4965835;28;20130;-71
2021/10/23 10:00:04;;;;;;;22.38;9.95;;;;;;;;;;4969641;28;20027;-70
2021/10/23 10:02:30;;;;;;;;;;;;;;;;;;4947489;28;20027;-70
2021/10/23 10:04:56;;;;;;;19.55;9.38;;;;;;;;;;4981041;28;20019;-70
2021/10/23 10:07:22;;;;;;;18.85;8.30;;;;;;;;;;4983028;28;20088;-70
2021/10/23 10:09:49;;;;;;;18.10;7.82;;;;;;;;;;4978384;28;20034;-69
2021/10/23 10:12:14;;;;;;;21.40;9.13;;;;;;;;;;4982369;28;20030;-68
2021/10/23 10:14:40;;;;;;;22.25;11.40;;;;;;;;;;4976442;28;20027;-68
2021/10/23 10:17:06;;;;;;;18.70;8.90;;;;;;;;;;4976539;28;20026;-70
2021/10/23 10:19:32;;;;;;;16.98;8.85;;;;;;;;;;4971717;28;20027;-68
2021/10/23 10:22:08;;;;;;;19.50;8.90;;;;;;;;;;4975371;28;20780;-69
2021/10/23 10:24:38;;;;;;;14.60;8.52;;;;;;;;;;4973858;28;20038;-68
2021/10/23 10:27:20;;;;;;;16.38;8.75;;;;;;;;;;4959005;28;20027;-67
2021/10/23 10:29:52;;;;;;;19.17;8.75;;;;;;;;;;4974980;28;20479;-67
2021/10/23 10:32:31;;;;;;;19.83;9.10;;;;;;;;;;4973523;28;20110;-68
2021/10/23 10:40:17;;;;;;;15.48;8.07;;;;;;;;;;4972990;28;20023;-68
2021/10/23 10:42:56;;;;;;;17.98;8.82;;;;;;;;;;4973072;28;20031;-69
2021/10/23 10:45:30;;;;;;;23.38;9.32;;;;;;;;;;4973877;28;20547;-68
2021/10/23 10:48:09;;;;;;;17.63;9.10;;;;;;;;;;4970500;28;20023;-68
2021/10/23 10:50:36;;;;;;;18.52;8.45;;;;;;;;;;4982303;28;20038;-67
2021/10/23 10:53:29;;;;;;;14.38;8.05;;;;;;;;;;4976731;28;20027;-69
2021/10/23 10:56:04;;;;;;;24.85;8.88;;;;;;;;;;4938555;28;20054;-68
2021/10/23 10:58:42;;;;;;;21.38;8.95;;;;;;;;;;4974740;28;20033;-68
2021/10/23 11:01:10;;;;;;;17.25;6.97;;;;;;;;;;4958511;28;20118;-69
2021/10/23 11:03:37;;;;;;;16.38;8.02;;;;;;;;;;4956263;28;20039;-67
2021/10/23 11:06:26;;;;;;;14.73;6.35;;;;;;;;;;4972258;28;20178;-68
2021/10/23 11:09:11;;;;;;;14.68;5.88;;;;;;;;;;4974906;28;20031;-68
2021/10/23 11:11:49;;;;;;;15.40;5.75;;;;;;;;;;4973594;28;20039;-69
2021/10/23 11:16:47;;;;;;;12.07;4.55;;;;;;;;;;4999425;23;20049;-73
2021/10/23 11:19:17;;;;;;;8.88;5.03;;;;;;;;;;4988019;28;20014;-72
2021/10/23 11:21:43;;;;;;;13.95;5.97;;;;;;;;;;4989964;28;20028;-73
2021/10/23 11:24:09;;;;;;;10.13;4.82;;;;;;;;;;4981943;28;20026;-74
2021/10/23 11:26:34;;;;;;;10.80;5.90;;;;;;;;;;4979782;28;20480;-73
2021/10/23 11:29:17;;;;;;;12.27;6.55;;;;;;;;;;4970499;28;20039;-74
2021/10/23 11:31:44;;;;;;;13.25;5.53;;;;;;;;;;4966610;28;20483;-73
2021/10/23 11:34:18;;;;;;;10.93;5.13;;;;;;;;;;4968868;28;20023;-73
2021/10/23 11:36:44;;;;;;;9.23;5.05;;;;;;;;;;4973455;28;20054;-73
2021/10/23 11:39:18;;;;;;;11.25;5.70;;;;;;;;;;4968881;28;20023;-71
2021/10/23 11:41:44;;;;;;;11.88;5.18;;;;;;;;;;4974656;28;20157;-73
2021/10/23 11:44:10;;;;;;;11.45;5.43;;;;;;;;;;4966593;28;20114;-73
2021/10/23 11:46:39;;;;;;;11.57;5.68;;;;;;;;;;4969712;28;20026;-74
2021/10/23 11:49:06;;;;;;;15.68;6.57;;;;;;;;;;4973857;28;20186;-74
2021/10/23 11:51:32;;;;;;;10.90;6.85;;;;;;;;;;4973011;28;20033;-74
2021/10/23 11:53:59;;;;;;;11.43;5.43;;;;;;;;;;4971739;28;20105;-74
2021/10/23 11:56:25;;;;;;;14.93;5.72;;;;;;;;;;4972561;28;20023;-74
2021/10/23 11:58:55;;;;;;;14.50;6.07;;;;;;;;;;4973416;28;20019;-74
2021/10/23 12:01:22;;;;;;;;;;;;;;;;;;4969454;28;20109;-74
2021/10/23 12:03:51;;;;;;;9.93;5.88;;;;;;;;;;4972480;28;19925;-74
2021/10/23 12:06:19;;;;;;;12.57;6.20;;;;;;;;;;4969343;28;20023;-74
2021/10/23 12:08:46;;;;;;;9.63;5.63;;;;;;;;;;4972339;28;20029;-74
2021/10/23 12:11:21;;;;;;;12.77;5.78;;;;;;;;;;4951243;28;20061;-74
2021/10/23 12:13:47;;;;;;;12.63;5.53;;;;;;;;;;4971587;28;20035;-74
2021/10/23 12:16:14;;;;;;;11.48;6.18;;;;;;;;;;4972089;28;20447;-75
2021/10/23 12:18:41;;;;;;;10.90;5.22;;;;;;;;;;4971915;28;20364;-75
2021/10/23 12:21:14;;;;;;;11.23;5.65;;;;;;;;;;4972490;28;20097;-74
2021/10/23 12:23:42;;;;;;;8.13;5.20;;;;;;;;;;4971038;28;20030;-74
2021/10/23 12:26:08;;;;;;;11.73;5.10;;;;;;;;;;4970560;28;20023;-74
2021/10/23 12:28:54;;;;;;;10.48;5.97;;;;;;;;;;4970850;28;20658;-74
2021/10/23 12:31:20;;;;;;;9.65;5.38;;;;;;;;;;4970604;28;20019;-74
2021/10/23 12:34:05;;;;;;;11.00;5.30;;;;;;;;;;4971846;28;20449;-74
2021/10/23 12:36:34;;;;;;;14.68;5.93;;;;;;;;;;4971457;28;20026;-75
2021/10/23 12:39:17;;;;;;;13.13;5.30;;;;;;;;;;4970570;28;20113;-75
2021/10/23 12:41:43;;;;;;;9.30;4.78;;;;;;;;;;4970066;28;20400;-75
2021/10/23 12:44:09;;;;;;;11.45;4.93;;;;;;;;;;4969907;28;20025;-74
2021/10/23 12:46:35;;;;;;;11.45;5.30;;;;;;;;;;4970123;28;20586;-75
2021/10/23 12:49:01;;;;;;;8.65;5.32;;;;;;;;;;4970455;28;20034;-74
2021/10/23 12:51:30;;;;;;;11.30;4.63;;;;;;;;;;4972533;28;20480;-75
2021/10/23 12:53:56;;;;;;;9.33;5.23;;;;;;;;;;4970131;28;20085;-74
2021/10/23 12:56:22;;;;;;;11.98;5.30;;;;;;;;;;4974111;28;20023;-75
2021/10/23 12:58:49;;;;;;;9.38;5.20;;;;;;;;;;4972134;28;20031;-74
2021/10/23 13:01:15;;;;;;;10.95;5.80;;;;;;;;;;4971595;28;20122;-74
2021/10/23 13:03:41;;;;;;;9.18;5.55;;;;;;;;;;4971489;28;20047;-75
2021/10/23 13:06:08;;;;;;;12.30;5.93;;;;;;;;;;4971375;28;20037;-75
2021/10/23 13:08:34;;;;;;;11.80;5.30;;;;;;;;;;4970993;28;20484;-75
2021/10/23 13:11:00;;;;;;;11.77;5.05;;;;;;;;;;4972059;28;20068;-74
2021/10/23 13:13:27;;;;;;;11.82;5.72;;;;;;;;;;4967578;28;20035;-74
2021/10/23 13:15:53;;;;;;;14.27;6.15;;;;;;;;;;4971670;28;20430;-74
2021/10/23 13:18:19;;;;;;;13.23;6.20;;;;;;;;;;4971400;28;20135;-75
2021/10/23 13:20:45;;;;;;;10.75;5.93;;;;;;;;;;4970754;28;20109;-74
2021/10/23 13:23:12;;;;;;;17.20;6.45;;;;;;;;;;4967038;28;20038;-74
2021/10/23 13:25:38;;;;;;;12.93;6.03;;;;;;;;;;4974760;28;20587;-74
2021/10/23 13:28:04;;;;;;;14.60;7.45;;;;;;;;;;4949877;28;20026;-75
2021/10/23 13:30:30;;;;;;;10.73;6.40;;;;;;;;;;4970805;28;20023;-75
2021/10/23 13:32:56;;;;;;;15.88;7.22;;;;;;;;;;4970337;28;20519;-73
2021/10/23 13:35:22;;;;;;;12.70;6.93;;;;;;;;;;4971270;28;20023;-74
2021/10/23 13:37:48;;;;;;;13.55;7.22;;;;;;;;;;4970652;28;20030;-74
2021/10/23 13:40:14;;;;;;;10.43;6.70;;;;;;;;;;4969318;28;20078;-75
2021/10/23 13:42:41;;;;;;;11.23;6.47;;;;;;;;;;4968455;28;20034;-73
2021/10/23 13:45:07;;;;;;;12.57;6.63;;;;;;;;;;4968722;28;20027;-75
2021/10/23 13:47:33;;;;;;;12.68;6.57;;;;;;;;;;4970475;28;20479;-75
2021/10/23 13:49:59;;;;;;;13.18;6.50;;;;;;;;;;4961002;28;20027;-75
2021/10/23 13:52:26;;;;;;;13.77;7.45;;;;;;;;;;4966782;28;20077;-75
2021/10/23 13:54:52;;;;;;;17.30;7.63;;;;;;;;;;4949330;28;20440;-74
2021/10/23 13:57:18;;;;;;;14.23;6.35;;;;;;;;;;4970069;28;20035;-75
2021/10/23 13:59:44;;;;;;;12.90;6.45;;;;;;;;;;4969721;28;20039;-75
2021/10/23 14:02:10;;;;;;;12.18;6.93;;;;;;;;;;4961849;28;20035;-75
2021/10/23 14:04:36;;;;;;;12.48;7.22;;;;;;;;;;4970857;28;20034;-74
2021/10/23 14:07:03;;;;;;;18.10;7.60;;;;;;;;;;4970976;28;20027;-74
2021/10/23 14:09:29;;;;;;;15.60;7.75;;;;;;;;;;4967229;28;20019;-74
2021/10/23 14:11:56;;;;;;;11.93;7.55;;;;;;;;;;4962786;28;20035;-74
2021/10/23 14:14:22;;;;;;;14.20;7.47;;;;;;;;;;4968363;28;20037;-74
2021/10/23 14:16:48;;;;;;;15.93;8.65;;;;;;;;;;4970616;28;20035;-74
2021/10/23 14:19:14;;;;;;;14.57;7.78;;;;;;;;;;4969509;28;20086;-75
2021/10/23 14:21:40;;;;;;;12.10;7.90;;;;;;;;;;4970227;28;20038;-75
2021/10/23 14:24:06;;;;;;;16.05;9.25;;;;;;;;;;4967441;28;20027;-74
2021/10/23 14:26:36;;;;;;;17.38;9.05;;;;;;;;;;4968827;28;20018;-74
2021/10/23 14:29:06;;;;;;;19.15;9.40;;;;;;;;;;4970892;28;20074;-74
2021/10/23 14:31:32;;;;;;;18.73;9.50;;;;;;;;;;4971053;28;20090;-75
2021/10/23 14:33:58;;;;;;;14.75;8.50;;;;;;;;;;4968303;28;20143;-75
2021/10/23 14:36:25;;;;;;;14.88;9.32;;;;;;;;;;4968742;28;20022;-75
2021/10/23 14:38:51;;;;;;;16.65;8.93;;;;;;;;;;4967751;28;20087;-74
2021/10/23 14:41:17;;;;;;;25.38;9.15;;;;;;;;;;4964856;28;20094;-75
2021/10/23 14:43:43;;;;;;;18.13;9.50;;;;;;;;;;4967529;28;20022;-74